Ince Fortune — 9HA2416 — position and weather

sailwx.info

Track history (hours):
 
Tides and Currents Weather Stations Pressure Air Temp Water Temp Dewpoint Dewpoint Depression Visibility Wind Speed Wind Dir Waves Ship Positions

Ince Fortune

Last reported at 2018-May-02 23:23 UTC. Time now 2018-May-20 14:12 UTC.
Position N 37°30' E 025°56'.
Warning: this ship's position is 17 days out of date.

Length 190 m; draft 13.1 m.

Type: Cargo ship. MMSI: 248564000.

Date/timePositionNaut miles runAvg speedWind from/ knotsBaromVisibWave heightAir tempDewpointWater temp
2018-May-02 23:23N 37°30' E 025°56'410.7
2018-May-02 23:00N 37°33' E 025°54'13410.8
2018-May-02 10:35N 39°48' E 025°51'110.8
2018-May-02 10:30N 39°49' E 025°52'1010.8
2018-May-02 09:35N 39°58' E 025°57'310.8
2018-May-02 09:20N 39°60' E 025°59'611.5
2018-May-02 08:51N 40°01' E 026°06'7910.4
2018-May-02 01:15N 40°44' E 027°33'311.0
2018-May-02 00:58N 40°45' E 027°36'510.9
2018-May-02 00:30N 40°47' E 027°43'57 2.3
2018-Apr-30 23:22N 40°58' E 028°57'426 8.4
2018-Apr-28 20:38N 44°25' E 037°23'211.0
2018-Apr-28 20:28N 44°26' E 037°25'511.0
2018-Apr-28 19:59N 44°29' E 037°32'511.1
2018-Apr-28 19:30N 44°31' E 037°38'510.7
2018-Apr-28 19:01N 44°34' E 037°45'510.4
2018-Apr-28 18:31N 44°38' E 037°49'3 6.6
2018-Apr-28 18:01N 44°41' E 037°51'0 0.6
2018-Apr-28 17:30N 44°41' E 037°51'0 0.0
2018-Apr-28 17:00N 44°41' E 037°51'0 0.0
2018-Apr-28 16:30N 44°41' E 037°51'0 0.0
2018-Apr-28 16:00N 44°41' E 037°51'0 0.0
2018-Apr-28 15:30N 44°41' E 037°51'0 0.0
2018-Apr-28 15:00N 44°41' E 037°51'0 0.0
2018-Apr-28 14:30N 44°41' E 037°51'0 0.1
2018-Apr-28 14:00N 44°41' E 037°51'0 0.0
2018-Apr-28 13:30N 44°41' E 037°51'0 0.0
2018-Apr-28 13:00N 44°41' E 037°51'0 0.0
2018-Apr-28 12:30N 44°41' E 037°51'0 0.1
2018-Apr-28 12:00N 44°41' E 037°51'0 0.1
2018-Apr-28 11:30N 44°41' E 037°51'0 0.0
2018-Apr-28 11:00N 44°41' E 037°51'0 0.1
2018-Apr-28 10:30N 44°41' E 037°51'0 0.1
2018-Apr-28 10:00N 44°41' E 037°51'0 0.0
2018-Apr-28 09:30N 44°41' E 037°51'0 0.0
2018-Apr-28 09:00N 44°41' E 037°51'0 0.1
2018-Apr-28 08:30N 44°41' E 037°51'2 3.2
2018-Apr-28 08:00N 44°42' E 037°50'2 4.5
2018-Apr-28 07:30N 44°44' E 037°47'0 0.5
2018-Apr-28 07:00N 44°44' E 037°47'0 0.0
2018-Apr-28 06:30N 44°44' E 037°47'0 0.0
2018-Apr-28 06:00N 44°44' E 037°47'0 0.0
2018-Apr-28 05:30N 44°44' E 037°47'0 0.0
2018-Apr-28 05:00N 44°44' E 037°47'0 0.0
2018-Apr-28 04:30N 44°44' E 037°47'0 0.0
2018-Apr-28 04:00N 44°44' E 037°47'0 0.1
2018-Apr-28 03:30N 44°44' E 037°47'0 0.0
2018-Apr-28 03:00N 44°44' E 037°47'0 0.0
2018-Apr-28 02:30N 44°44' E 037°47'0 0.0
2018-Apr-28 02:00N 44°44' E 037°47'0 0.0
2018-Apr-28 01:30N 44°44' E 037°47'0 0.0
2018-Apr-28 01:00N 44°44' E 037°47'0 0.0
2018-Apr-28 00:30N 44°44' E 037°47'0 0.0
2018-Apr-28 00:00N 44°44' E 037°47'0 0.0
2018-Apr-27 23:30N 44°44' E 037°47'0 0.0
2018-Apr-27 23:00N 44°44' E 037°47'0 0.0
2018-Apr-27 22:30N 44°44' E 037°47'0 0.0
2018-Apr-27 22:00N 44°44' E 037°47'0 0.0
2018-Apr-27 21:30N 44°44' E 037°47'0 0.0
2018-Apr-27 21:00N 44°44' E 037°47'0 0.0
2018-Apr-27 20:30N 44°44' E 037°47'0 0.0
2018-Apr-27 20:00N 44°44' E 037°47'0 0.0
2018-Apr-27 19:30N 44°44' E 037°47'0 0.0
2018-Apr-27 19:00N 44°44' E 037°47'0 0.0
2018-Apr-27 18:30N 44°44' E 037°47'0 0.0
2018-Apr-27 18:00N 44°44' E 037°47'0 0.0
2018-Apr-27 17:30N 44°44' E 037°47'0 0.0
2018-Apr-27 17:00N 44°44' E 037°47'0 0.0
2018-Apr-27 16:30N 44°44' E 037°47'0 0.0
2018-Apr-27 16:00N 44°44' E 037°47'0 0.0
2018-Apr-27 15:30N 44°44' E 037°47'0 0.0
2018-Apr-27 15:00N 44°44' E 037°47'0 0.0
2018-Apr-27 14:30N 44°44' E 037°47'0 0.0
2018-Apr-27 14:00N 44°44' E 037°47'0 0.0
2018-Apr-27 13:30N 44°44' E 037°47'0 0.0
2018-Apr-27 13:00N 44°44' E 037°47'0 0.0
2018-Apr-27 12:30N 44°44' E 037°47'0 0.0
2018-Apr-27 12:00N 44°44' E 037°47'0 0.0
2018-Apr-27 11:30N 44°44' E 037°47'0 0.0
2018-Apr-27 11:00N 44°44' E 037°47'0 0.0
2018-Apr-27 10:30N 44°44' E 037°47'0 0.0
2018-Apr-27 10:00N 44°44' E 037°47'0 0.0
2018-Apr-27 09:30N 44°44' E 037°47'0 0.0
2018-Apr-27 09:00N 44°44' E 037°47'0 0.0
2018-Apr-27 08:30N 44°44' E 037°47'0 0.0
2018-Apr-27 08:00N 44°44' E 037°47'0 0.0
2018-Apr-27 07:30N 44°44' E 037°47'0 0.7
2018-Apr-27 07:00N 44°43' E 037°47'2 4.2
2018-Apr-27 06:30N 44°42' E 037°49'4 7.9
2018-Apr-27 06:00N 44°38' E 037°52'2 4.5
2018-Apr-27 05:30N 44°36' E 037°52'3 5.2
2018-Apr-27 05:00N 44°34' E 037°54'1 2.7
2018-Apr-27 04:28N 44°34' E 037°56'0 0.0
2018-Apr-27 03:58N 44°34' E 037°56'0 0.0
2018-Apr-27 03:28N 44°34' E 037°56'0 0.0
2018-Apr-27 02:58N 44°34' E 037°56'0 0.0
2018-Apr-27 02:28N 44°34' E 037°56'0 0.0
2018-Apr-27 01:58N 44°34' E 037°56'0 0.0
2018-Apr-27 01:28N 44°34' E 037°56'0 0.0
2018-Apr-27 00:58N 44°34' E 037°56'0 0.1
2018-Apr-27 00:28N 44°34' E 037°56'0 0.1
2018-Apr-26 23:58N 44°34' E 037°56'0 0.0
2018-Apr-26 23:28N 44°34' E 037°56'0 0.1
2018-Apr-26 22:58N 44°34' E 037°56'0 0.2
2018-Apr-26 22:28N 44°34' E 037°55'0 0.1
2018-Apr-26 21:55N 44°34' E 037°55'0 0.1
2018-Apr-26 21:28N 44°34' E 037°55'0 0.0
2018-Apr-26 20:58N 44°34' E 037°55'0 0.0
2018-Apr-26 20:28N 44°34' E 037°55'0 0.1
2018-Apr-26 19:58N 44°34' E 037°55'0 0.0
2018-Apr-26 19:28N 44°34' E 037°55'0 0.0
2018-Apr-26 18:58N 44°34' E 037°55'0 0.0
2018-Apr-26 18:28N 44°34' E 037°55'0 0.0
2018-Apr-26 17:58N 44°34' E 037°55'0 0.0
2018-Apr-26 17:28N 44°34' E 037°55'0 0.0
2018-Apr-26 16:58N 44°34' E 037°55'0 0.0
2018-Apr-26 16:28N 44°34' E 037°55'0 0.1
2018-Apr-26 15:58N 44°34' E 037°55'0 0.0
2018-Apr-26 15:28N 44°34' E 037°55'0 0.0
2018-Apr-26 13:28N 44°34' E 037°56'0 0.0
2018-Apr-26 12:58N 44°34' E 037°55'0 0.0
2018-Apr-26 12:28N 44°34' E 037°55'0 0.0
2018-Apr-26 11:58N 44°34' E 037°55'0 0.1
2018-Apr-26 11:28N 44°34' E 037°55'0 0.0
2018-Apr-26 10:58N 44°34' E 037°55'0 0.0
2018-Apr-26 10:28N 44°34' E 037°55'0 0.0
2018-Apr-26 09:58N 44°34' E 037°55'0 0.0
2018-Apr-26 09:28N 44°34' E 037°55'0 0.0
2018-Apr-26 08:58N 44°34' E 037°55'0 0.0
2018-Apr-26 08:28N 44°34' E 037°55'0 0.0
2018-Apr-26 07:58N 44°34' E 037°55'0 0.0
2018-Apr-26 07:28N 44°34' E 037°55'0 0.0
2018-Apr-26 06:58N 44°34' E 037°55'0 0.0
2018-Apr-26 06:28N 44°34' E 037°55'0 0.0
2018-Apr-26 05:58N 44°34' E 037°55'0 0.0
2018-Apr-26 05:28N 44°34' E 037°55'0 0.0
2018-Apr-26 04:58N 44°34' E 037°55'0 0.0
2018-Apr-26 04:28N 44°34' E 037°55'0 0.0
2018-Apr-26 03:58N 44°34' E 037°55'0 0.0
2018-Apr-26 03:28N 44°34' E 037°55'0 0.0
2018-Apr-26 02:58N 44°34' E 037°55'0 0.0
2018-Apr-26 02:28N 44°34' E 037°55'0 0.0
2018-Apr-26 01:58N 44°34' E 037°55'0 0.0
2018-Apr-26 01:28N 44°34' E 037°55'0 0.0
2018-Apr-26 00:58N 44°34' E 037°55'0 0.0
2018-Apr-26 00:28N 44°34' E 037°55'0 0.0
2018-Apr-25 23:58N 44°34' E 037°55'0 0.0
2018-Apr-25 23:28N 44°34' E 037°55'0 0.0
2018-Apr-25 22:58N 44°34' E 037°55'0 0.0
2018-Apr-25 22:25N 44°34' E 037°55'0 0.1
2018-Apr-25 21:58N 44°34' E 037°55'0 0.1
2018-Apr-25 21:28N 44°34' E 037°55'0 0.0
2018-Apr-25 20:58N 44°34' E 037°56'0 0.0
2018-Apr-25 20:28N 44°34' E 037°56'0 0.0
2018-Apr-25 19:58N 44°34' E 037°56'0 0.0
2018-Apr-25 19:28N 44°34' E 037°56'0 0.0
2018-Apr-25 18:58N 44°34' E 037°56'0 0.0
2018-Apr-25 18:28N 44°34' E 037°56'0 0.0
2018-Apr-25 17:58N 44°34' E 037°56'0 0.0
2018-Apr-25 17:28N 44°34' E 037°56'0 0.0
2018-Apr-25 16:58N 44°34' E 037°56'0 0.0
2018-Apr-25 16:28N 44°34' E 037°56'0 0.0
2018-Apr-25 15:55N 44°34' E 037°56'0 0.0
2018-Apr-25 15:28N 44°34' E 037°56'0 0.0
2018-Apr-25 14:58N 44°34' E 037°56'0 0.0
2018-Apr-25 14:28N 44°34' E 037°56'0 0.0
2018-Apr-25 13:58N 44°34' E 037°56'0 0.0
2018-Apr-25 13:28N 44°34' E 037°56'0 0.0
2018-Apr-25 12:58N 44°34' E 037°56'0 0.0
2018-Apr-25 12:28N 44°34' E 037°56'0 0.0
2018-Apr-25 11:58N 44°34' E 037°56'0 0.1
2018-Apr-25 11:28N 44°34' E 037°56'0 0.0
2018-Apr-25 10:58N 44°34' E 037°55'0 0.0
2018-Apr-25 10:25N 44°34' E 037°55'0 0.0
2018-Apr-25 09:58N 44°34' E 037°55'0 0.0
2018-Apr-25 09:28N 44°34' E 037°55'0 0.0
2018-Apr-25 08:58N 44°34' E 037°55'0 0.1
2018-Apr-25 08:28N 44°34' E 037°55'0 0.0
2018-Apr-25 07:58N 44°34' E 037°55'0 0.0
2018-Apr-25 07:28N 44°34' E 037°55'0 0.0
2018-Apr-25 06:58N 44°34' E 037°55'0 0.0
2018-Apr-25 06:28N 44°34' E 037°55'0 0.0
2018-Apr-25 05:58N 44°34' E 037°55'0 0.0
2018-Apr-25 05:28N 44°34' E 037°55'0 0.0
2018-Apr-25 04:58N 44°34' E 037°55'0 0.0
2018-Apr-25 04:28N 44°34' E 037°55'0 0.0
2018-Apr-25 03:58N 44°34' E 037°55'0 0.0
2018-Apr-25 03:28N 44°34' E 037°55'0 0.0
2018-Apr-25 02:58N 44°34' E 037°55'0 0.0
2018-Apr-25 02:28N 44°34' E 037°55'0 0.0
2018-Apr-25 01:58N 44°34' E 037°55'0 0.0
2018-Apr-25 01:28N 44°34' E 037°55'0 0.0
2018-Apr-25 00:58N 44°34' E 037°55'0 0.0
2018-Apr-25 00:28N 44°34' E 037°55'0 0.0
2018-Apr-24 23:58N 44°34' E 037°55'0 0.0
2018-Apr-24 23:28N 44°34' E 037°55'0 0.0
2018-Apr-24 22:58N 44°34' E 037°55'0 0.0
2018-Apr-24 22:28N 44°34' E 037°55'0 0.0
2018-Apr-24 21:58N 44°34' E 037°55'0 0.0
2018-Apr-24 21:28N 44°34' E 037°55'0 0.0
2018-Apr-24 20:58N 44°34' E 037°55'0 0.0
2018-Apr-24 20:28N 44°34' E 037°55'0 0.0
2018-Apr-24 19:58N 44°34' E 037°55'0 0.0
2018-Apr-24 19:28N 44°34' E 037°55'0 0.0
2018-Apr-24 18:58N 44°34' E 037°55'0 0.0
2018-Apr-24 18:28N 44°34' E 037°55'0 0.0
2018-Apr-24 17:58N 44°34' E 037°55'0 0.0
2018-Apr-24 17:28N 44°34' E 037°55'0 0.0
2018-Apr-24 16:58N 44°34' E 037°56'0 0.0
2018-Apr-24 16:28N 44°34' E 037°56'0 0.0
2018-Apr-24 15:58N 44°34' E 037°56'0 0.0
2018-Apr-24 15:28N 44°34' E 037°56'0 0.0
2018-Apr-24 14:58N 44°34' E 037°56'0 0.0
2018-Apr-24 14:28N 44°34' E 037°56'0 0.0
2018-Apr-24 13:58N 44°34' E 037°56'0 0.0
2018-Apr-24 13:28N 44°34' E 037°56'0 0.0
2018-Apr-24 12:58N 44°34' E 037°56'0 0.0
2018-Apr-24 12:28N 44°34' E 037°56'0 0.0
2018-Apr-24 11:58N 44°34' E 037°56'0 0.0
2018-Apr-24 11:28N 44°34' E 037°56'0 0.0
2018-Apr-24 10:58N 44°34' E 037°56'0 0.0
2018-Apr-24 10:28N 44°34' E 037°56'0 0.0
2018-Apr-24 09:58N 44°34' E 037°56'0 0.0
2018-Apr-24 09:28N 44°34' E 037°56'0 0.0
2018-Apr-24 08:58N 44°34' E 037°56'0 0.0
2018-Apr-24 08:28N 44°34' E 037°56'0 0.0
2018-Apr-24 07:58N 44°34' E 037°56'0 0.0
2018-Apr-24 07:28N 44°34' E 037°56'0 0.0
2018-Apr-24 06:58N 44°34' E 037°56'0 0.0
2018-Apr-24 06:28N 44°34' E 037°56'0 0.0
2018-Apr-24 05:58N 44°34' E 037°56'0 0.0
2018-Apr-24 05:28N 44°34' E 037°56'0 0.0
2018-Apr-24 04:58N 44°34' E 037°55'0 0.0
2018-Apr-24 04:28N 44°34' E 037°55'0 0.0
2018-Apr-24 03:58N 44°34' E 037°55'0 0.0
2018-Apr-24 03:28N 44°34' E 037°55'0 0.0
2018-Apr-24 02:58N 44°34' E 037°55'0 0.1
2018-Apr-24 02:25N 44°34' E 037°55'0 0.1
2018-Apr-24 01:58N 44°34' E 037°55'0 0.0
2018-Apr-24 01:28N 44°34' E 037°55'0 0.0
2018-Apr-24 00:58N 44°34' E 037°55'0 0.1
2018-Apr-24 00:28N 44°34' E 037°55'0 0.0
2018-Apr-23 23:58N 44°34' E 037°55'0 0.0
2018-Apr-23 23:28N 44°34' E 037°55'0 0.0
2018-Apr-23 22:58N 44°34' E 037°55'0 0.0
2018-Apr-23 22:28N 44°34' E 037°55'0 0.0
2018-Apr-23 21:58N 44°34' E 037°55'0 0.0
2018-Apr-23 21:28N 44°34' E 037°55'0 0.0
2018-Apr-23 20:58N 44°34' E 037°55'0 0.0
2018-Apr-23 20:28N 44°34' E 037°55'0 0.0
2018-Apr-23 19:58N 44°34' E 037°55'0 0.0
2018-Apr-23 19:28N 44°34' E 037°55'0 0.0
2018-Apr-23 18:55N 44°34' E 037°55'0 0.0
2018-Apr-23 18:28N 44°34' E 037°55'0 0.0
2018-Apr-23 17:58N 44°34' E 037°55'0 0.0
2018-Apr-23 17:28N 44°34' E 037°56'0 0.0
2018-Apr-23 16:58N 44°34' E 037°56'0 0.0
2018-Apr-23 16:28N 44°34' E 037°56'0 0.0
2018-Apr-23 15:58N 44°34' E 037°56'0 0.0
2018-Apr-23 15:25N 44°34' E 037°56'0 0.0
2018-Apr-23 14:58N 44°34' E 037°56'0 0.0
2018-Apr-23 14:28N 44°34' E 037°56'0 0.0
2018-Apr-23 13:58N 44°34' E 037°56'0 0.0
2018-Apr-23 13:28N 44°34' E 037°56'0 0.0
2018-Apr-23 12:58N 44°34' E 037°56'0 0.0
2018-Apr-23 12:28N 44°34' E 037°56'0 0.0
2018-Apr-23 11:58N 44°34' E 037°56'0 0.0
2018-Apr-23 11:28N 44°34' E 037°56'0 0.0
2018-Apr-23 10:58N 44°34' E 037°56'0 0.0
2018-Apr-23 10:28N 44°34' E 037°56'0 0.0
2018-Apr-23 09:58N 44°34' E 037°56'0 0.1
2018-Apr-23 09:28N 44°34' E 037°56'0 0.1
2018-Apr-23 08:58N 44°34' E 037°56'0 0.0
2018-Apr-23 08:28N 44°34' E 037°56'0 0.0
2018-Apr-23 07:58N 44°34' E 037°56'0 0.0
2018-Apr-23 07:28N 44°34' E 037°56'0 0.0
2018-Apr-23 06:58N 44°34' E 037°56'0 0.0
2018-Apr-23 06:28N 44°34' E 037°56'0 0.0
2018-Apr-23 05:58N 44°34' E 037°56'0 0.0
2018-Apr-23 05:28N 44°34' E 037°56'0 0.0
2018-Apr-23 04:55N 44°34' E 037°56'0 0.0
2018-Apr-23 04:28N 44°34' E 037°56'0 0.0
2018-Apr-23 03:58N 44°34' E 037°56'0 0.0
2018-Apr-23 03:28N 44°34' E 037°56'0 0.0
2018-Apr-23 02:58N 44°34' E 037°56'0 0.0
2018-Apr-23 02:28N 44°34' E 037°56'0 0.0
2018-Apr-23 01:58N 44°34' E 037°56'0 0.0
2018-Apr-23 01:25N 44°34' E 037°56'0 0.0
2018-Apr-23 00:58N 44°34' E 037°56'0 0.0
2018-Apr-23 00:28N 44°34' E 037°56'0 0.0
2018-Apr-22 23:58N 44°34' E 037°56'0 0.0
2018-Apr-22 23:28N 44°34' E 037°56'  
Track history (hours):
 
Tides and Currents Weather Stations Pressure Air Temp Water Temp Dewpoint Dewpoint Depression Visibility Wind Speed Wind Dir Waves Ship Positions

Ince Fortune

Last reported at 2018-May-02 23:23 UTC. Time now 2018-May-20 14:12 UTC.
Position N 37°30' E 025°56'.
Warning: this ship's position is 17 days out of date.

Length 190 m; draft 13.1 m.

Type: Cargo ship. MMSI: 248564000.

Date/timePositionNaut miles runAvg speedWind from/ knotsBaromVisibWave heightAir tempDewpointWater temp
2018-May-02 23:23N 37°30' E 025°56'410.7
2018-May-02 23:00N 37°33' E 025°54'13410.8
2018-May-02 10:35N 39°48' E 025°51'110.8
2018-May-02 10:30N 39°49' E 025°52'1010.8
2018-May-02 09:35N 39°58' E 025°57'310.8
2018-May-02 09:20N 39°60' E 025°59'611.5
2018-May-02 08:51N 40°01' E 026°06'7910.4
2018-May-02 01:15N 40°44' E 027°33'311.0
2018-May-02 00:58N 40°45' E 027°36'510.9
2018-May-02 00:30N 40°47' E 027°43'57 2.3
2018-Apr-30 23:22N 40°58' E 028°57'426 8.4
2018-Apr-28 20:38N 44°25' E 037°23'211.0
2018-Apr-28 20:28N 44°26' E 037°25'511.0
2018-Apr-28 19:59N 44°29' E 037°32'511.1
2018-Apr-28 19:30N 44°31' E 037°38'510.7
2018-Apr-28 19:01N 44°34' E 037°45'510.4
2018-Apr-28 18:31N 44°38' E 037°49'3 6.6
2018-Apr-28 18:01N 44°41' E 037°51'0 0.6
2018-Apr-28 17:30N 44°41' E 037°51'0 0.0
2018-Apr-28 17:00N 44°41' E 037°51'0 0.0
2018-Apr-28 16:30N 44°41' E 037°51'0 0.0
2018-Apr-28 16:00N 44°41' E 037°51'0 0.0
2018-Apr-28 15:30N 44°41' E 037°51'0 0.0
2018-Apr-28 15:00N 44°41' E 037°51'0 0.0
2018-Apr-28 14:30N 44°41' E 037°51'0 0.1
2018-Apr-28 14:00N 44°41' E 037°51'0 0.0
2018-Apr-28 13:30N 44°41' E 037°51'0 0.0
2018-Apr-28 13:00N 44°41' E 037°51'0 0.0
2018-Apr-28 12:30N 44°41' E 037°51'0 0.1
2018-Apr-28 12:00N 44°41' E 037°51'0 0.1
2018-Apr-28 11:30N 44°41' E 037°51'0 0.0
2018-Apr-28 11:00N 44°41' E 037°51'0 0.1
2018-Apr-28 10:30N 44°41' E 037°51'0 0.1
2018-Apr-28 10:00N 44°41' E 037°51'0 0.0
2018-Apr-28 09:30N 44°41' E 037°51'0 0.0
2018-Apr-28 09:00N 44°41' E 037°51'0 0.1
2018-Apr-28 08:30N 44°41' E 037°51'2 3.2
2018-Apr-28 08:00N 44°42' E 037°50'2 4.5
2018-Apr-28 07:30N 44°44' E 037°47'0 0.5
2018-Apr-28 07:00N 44°44' E 037°47'0 0.0
2018-Apr-28 06:30N 44°44' E 037°47'0 0.0
2018-Apr-28 06:00N 44°44' E 037°47'0 0.0
2018-Apr-28 05:30N 44°44' E 037°47'0 0.0
2018-Apr-28 05:00N 44°44' E 037°47'0 0.0
2018-Apr-28 04:30N 44°44' E 037°47'0 0.0
2018-Apr-28 04:00N 44°44' E 037°47'0 0.1
2018-Apr-28 03:30N 44°44' E 037°47'0 0.0
2018-Apr-28 03:00N 44°44' E 037°47'0 0.0
2018-Apr-28 02:30N 44°44' E 037°47'0 0.0
2018-Apr-28 02:00N 44°44' E 037°47'0 0.0
2018-Apr-28 01:30N 44°44' E 037°47'0 0.0
2018-Apr-28 01:00N 44°44' E 037°47'0 0.0
2018-Apr-28 00:30N 44°44' E 037°47'0 0.0
2018-Apr-28 00:00N 44°44' E 037°47'0 0.0
2018-Apr-27 23:30N 44°44' E 037°47'0 0.0
2018-Apr-27 23:00N 44°44' E 037°47'0 0.0
2018-Apr-27 22:30N 44°44' E 037°47'0 0.0
2018-Apr-27 22:00N 44°44' E 037°47'0 0.0
2018-Apr-27 21:30N 44°44' E 037°47'0 0.0
2018-Apr-27 21:00N 44°44' E 037°47'0 0.0
2018-Apr-27 20:30N 44°44' E 037°47'0 0.0
2018-Apr-27 20:00N 44°44' E 037°47'0 0.0
2018-Apr-27 19:30N 44°44' E 037°47'0 0.0
2018-Apr-27 19:00N 44°44' E 037°47'0 0.0
2018-Apr-27 18:30N 44°44' E 037°47'0 0.0
2018-Apr-27 18:00N 44°44' E 037°47'0 0.0
2018-Apr-27 17:30N 44°44' E 037°47'0 0.0
2018-Apr-27 17:00N 44°44' E 037°47'0 0.0
2018-Apr-27 16:30N 44°44' E 037°47'0 0.0
2018-Apr-27 16:00N 44°44' E 037°47'0 0.0
2018-Apr-27 15:30N 44°44' E 037°47'0 0.0
2018-Apr-27 15:00N 44°44' E 037°47'0 0.0
2018-Apr-27 14:30N 44°44' E 037°47'0 0.0
2018-Apr-27 14:00N 44°44' E 037°47'0 0.0
2018-Apr-27 13:30N 44°44' E 037°47'0 0.0
2018-Apr-27 13:00N 44°44' E 037°47'0 0.0
2018-Apr-27 12:30N 44°44' E 037°47'0 0.0
2018-Apr-27 12:00N 44°44' E 037°47'0 0.0
2018-Apr-27 11:30N 44°44' E 037°47'0 0.0
2018-Apr-27 11:00N 44°44' E 037°47'0 0.0
2018-Apr-27 10:30N 44°44' E 037°47'0 0.0
2018-Apr-27 10:00N 44°44' E 037°47'0 0.0
2018-Apr-27 09:30N 44°44' E 037°47'0 0.0
2018-Apr-27 09:00N 44°44' E 037°47'0 0.0
2018-Apr-27 08:30N 44°44' E 037°47'0 0.0
2018-Apr-27 08:00N 44°44' E 037°47'0 0.0
2018-Apr-27 07:30N 44°44' E 037°47'0 0.7
2018-Apr-27 07:00N 44°43' E 037°47'2 4.2
2018-Apr-27 06:30N 44°42' E 037°49'4 7.9
2018-Apr-27 06:00N 44°38' E 037°52'2 4.5
2018-Apr-27 05:30N 44°36' E 037°52'3 5.2
2018-Apr-27 05:00N 44°34' E 037°54'1 2.7
2018-Apr-27 04:28N 44°34' E 037°56'0 0.0
2018-Apr-27 03:58N 44°34' E 037°56'0 0.0
2018-Apr-27 03:28N 44°34' E 037°56'0 0.0
2018-Apr-27 02:58N 44°34' E 037°56'0 0.0
2018-Apr-27 02:28N 44°34' E 037°56'0 0.0
2018-Apr-27 01:58N 44°34' E 037°56'0 0.0
2018-Apr-27 01:28N 44°34' E 037°56'0 0.0
2018-Apr-27 00:58N 44°34' E 037°56'0 0.1
2018-Apr-27 00:28N 44°34' E 037°56'0 0.1
2018-Apr-26 23:58N 44°34' E 037°56'0 0.0
2018-Apr-26 23:28N 44°34' E 037°56'0 0.1
2018-Apr-26 22:58N 44°34' E 037°56'0 0.2
2018-Apr-26 22:28N 44°34' E 037°55'0 0.1
2018-Apr-26 21:55N 44°34' E 037°55'0 0.1
2018-Apr-26 21:28N 44°34' E 037°55'0 0.0
2018-Apr-26 20:58N 44°34' E 037°55'0 0.0
2018-Apr-26 20:28N 44°34' E 037°55'0 0.1
2018-Apr-26 19:58N 44°34' E 037°55'0 0.0
2018-Apr-26 19:28N 44°34' E 037°55'0 0.0
2018-Apr-26 18:58N 44°34' E 037°55'0 0.0
2018-Apr-26 18:28N 44°34' E 037°55'0 0.0
2018-Apr-26 17:58N 44°34' E 037°55'0 0.0
2018-Apr-26 17:28N 44°34' E 037°55'0 0.0
2018-Apr-26 16:58N 44°34' E 037°55'0 0.0
2018-Apr-26 16:28N 44°34' E 037°55'0 0.1
2018-Apr-26 15:58N 44°34' E 037°55'0 0.0
2018-Apr-26 15:28N 44°34' E 037°55'0 0.0
2018-Apr-26 13:28N 44°34' E 037°56'0 0.0
2018-Apr-26 12:58N 44°34' E 037°55'0 0.0
2018-Apr-26 12:28N 44°34' E 037°55'0 0.0
2018-Apr-26 11:58N 44°34' E 037°55'0 0.1
2018-Apr-26 11:28N 44°34' E 037°55'0 0.0
2018-Apr-26 10:58N 44°34' E 037°55'0 0.0
2018-Apr-26 10:28N 44°34' E 037°55'0 0.0
2018-Apr-26 09:58N 44°34' E 037°55'0 0.0
2018-Apr-26 09:28N 44°34' E 037°55'0 0.0
2018-Apr-26 08:58N 44°34' E 037°55'0 0.0
2018-Apr-26 08:28N 44°34' E 037°55'0 0.0
2018-Apr-26 07:58N 44°34' E 037°55'0 0.0
2018-Apr-26 07:28N 44°34' E 037°55'0 0.0
2018-Apr-26 06:58N 44°34' E 037°55'0 0.0
2018-Apr-26 06:28N 44°34' E 037°55'0 0.0
2018-Apr-26 05:58N 44°34' E 037°55'0 0.0
2018-Apr-26 05:28N 44°34' E 037°55'0 0.0
2018-Apr-26 04:58N 44°34' E 037°55'0 0.0
2018-Apr-26 04:28N 44°34' E 037°55'0 0.0
2018-Apr-26 03:58N 44°34' E 037°55'0 0.0
2018-Apr-26 03:28N 44°34' E 037°55'0 0.0
2018-Apr-26 02:58N 44°34' E 037°55'0 0.0
2018-Apr-26 02:28N 44°34' E 037°55'0 0.0
2018-Apr-26 01:58N 44°34' E 037°55'0 0.0
2018-Apr-26 01:28N 44°34' E 037°55'0 0.0
2018-Apr-26 00:58N 44°34' E 037°55'0 0.0
2018-Apr-26 00:28N 44°34' E 037°55'0 0.0
2018-Apr-25 23:58N 44°34' E 037°55'0 0.0
2018-Apr-25 23:28N 44°34' E 037°55'0 0.0
2018-Apr-25 22:58N 44°34' E 037°55'0 0.0
2018-Apr-25 22:25N 44°34' E 037°55'0 0.1
2018-Apr-25 21:58N 44°34' E 037°55'0 0.1
2018-Apr-25 21:28N 44°34' E 037°55'0 0.0
2018-Apr-25 20:58N 44°34' E 037°56'0 0.0
2018-Apr-25 20:28N 44°34' E 037°56'0 0.0
2018-Apr-25 19:58N 44°34' E 037°56'0 0.0
2018-Apr-25 19:28N 44°34' E 037°56'0 0.0
2018-Apr-25 18:58N 44°34' E 037°56'0 0.0
2018-Apr-25 18:28N 44°34' E 037°56'0 0.0
2018-Apr-25 17:58N 44°34' E 037°56'0 0.0
2018-Apr-25 17:28N 44°34' E 037°56'0 0.0
2018-Apr-25 16:58N 44°34' E 037°56'0 0.0
2018-Apr-25 16:28N 44°34' E 037°56'0 0.0
2018-Apr-25 15:55N 44°34' E 037°56'0 0.0
2018-Apr-25 15:28N 44°34' E 037°56'0 0.0
2018-Apr-25 14:58N 44°34' E 037°56'0 0.0
2018-Apr-25 14:28N 44°34' E 037°56'0 0.0
2018-Apr-25 13:58N 44°34' E 037°56'0 0.0
2018-Apr-25 13:28N 44°34' E 037°56'0 0.0
2018-Apr-25 12:58N 44°34' E 037°56'0 0.0
2018-Apr-25 12:28N 44°34' E 037°56'0 0.0
2018-Apr-25 11:58N 44°34' E 037°56'0 0.1
2018-Apr-25 11:28N 44°34' E 037°56'0 0.0
2018-Apr-25 10:58N 44°34' E 037°55'0 0.0
2018-Apr-25 10:25N 44°34' E 037°55'0 0.0
2018-Apr-25 09:58N 44°34' E 037°55'0 0.0
2018-Apr-25 09:28N 44°34' E 037°55'0 0.0
2018-Apr-25 08:58N 44°34' E 037°55'0 0.1
2018-Apr-25 08:28N 44°34' E 037°55'0 0.0
2018-Apr-25 07:58N 44°34' E 037°55'0 0.0
2018-Apr-25 07:28N 44°34' E 037°55'0 0.0
2018-Apr-25 06:58N 44°34' E 037°55'0 0.0
2018-Apr-25 06:28N 44°34' E 037°55'0 0.0
2018-Apr-25 05:58N 44°34' E 037°55'0 0.0
2018-Apr-25 05:28N 44°34' E 037°55'0 0.0
2018-Apr-25 04:58N 44°34' E 037°55'0 0.0
2018-Apr-25 04:28N 44°34' E 037°55'0 0.0
2018-Apr-25 03:58N 44°34' E 037°55'0 0.0
2018-Apr-25 03:28N 44°34' E 037°55'0 0.0
2018-Apr-25 02:58N 44°34' E 037°55'0 0.0
2018-Apr-25 02:28N 44°34' E 037°55'0 0.0
2018-Apr-25 01:58N 44°34' E 037°55'0 0.0
2018-Apr-25 01:28N 44°34' E 037°55'0 0.0
2018-Apr-25 00:58N 44°34' E 037°55'0 0.0
2018-Apr-25 00:28N 44°34' E 037°55'0 0.0
2018-Apr-24 23:58N 44°34' E 037°55'0 0.0
2018-Apr-24 23:28N 44°34' E 037°55'0 0.0
2018-Apr-24 22:58N 44°34' E 037°55'0 0.0
2018-Apr-24 22:28N 44°34' E 037°55'0 0.0
2018-Apr-24 21:58N 44°34' E 037°55'0 0.0
2018-Apr-24 21:28N 44°34' E 037°55'0 0.0
2018-Apr-24 20:58N 44°34' E 037°55'0 0.0
2018-Apr-24 20:28N 44°34' E 037°55'0 0.0
2018-Apr-24 19:58N 44°34' E 037°55'0 0.0
2018-Apr-24 19:28N 44°34' E 037°55'0 0.0
2018-Apr-24 18:58N 44°34' E 037°55'0 0.0
2018-Apr-24 18:28N 44°34' E 037°55'0 0.0
2018-Apr-24 17:58N 44°34' E 037°55'0 0.0
2018-Apr-24 17:28N 44°34' E 037°55'0 0.0
2018-Apr-24 16:58N 44°34' E 037°56'0 0.0
2018-Apr-24 16:28N 44°34' E 037°56'0 0.0
2018-Apr-24 15:58N 44°34' E 037°56'0 0.0
2018-Apr-24 15:28N 44°34' E 037°56'0 0.0
2018-Apr-24 14:58N 44°34' E 037°56'0 0.0
2018-Apr-24 14:28N 44°34' E 037°56'0 0.0
2018-Apr-24 13:58N 44°34' E 037°56'0 0.0
2018-Apr-24 13:28N 44°34' E 037°56'0 0.0
2018-Apr-24 12:58N 44°34' E 037°56'0 0.0
2018-Apr-24 12:28N 44°34' E 037°56'0 0.0
2018-Apr-24 11:58N 44°34' E 037°56'0 0.0
2018-Apr-24 11:28N 44°34' E 037°56'0 0.0
2018-Apr-24 10:58N 44°34' E 037°56'0 0.0
2018-Apr-24 10:28N 44°34' E 037°56'0 0.0
2018-Apr-24 09:58N 44°34' E 037°56'0 0.0
2018-Apr-24 09:28N 44°34' E 037°56'0 0.0
2018-Apr-24 08:58N 44°34' E 037°56'0 0.0
2018-Apr-24 08:28N 44°34' E 037°56'0 0.0
2018-Apr-24 07:58N 44°34' E 037°56'0 0.0
2018-Apr-24 07:28N 44°34' E 037°56'0 0.0
2018-Apr-24 06:58N 44°34' E 037°56'0 0.0
2018-Apr-24 06:28N 44°34' E 037°56'0 0.0
2018-Apr-24 05:58N 44°34' E 037°56'0 0.0
2018-Apr-24 05:28N 44°34' E 037°56'0 0.0
2018-Apr-24 04:58N 44°34' E 037°55'0 0.0
2018-Apr-24 04:28N 44°34' E 037°55'0 0.0
2018-Apr-24 03:58N 44°34' E 037°55'0 0.0
2018-Apr-24 03:28N 44°34' E 037°55'0 0.0
2018-Apr-24 02:58N 44°34' E 037°55'0 0.1
2018-Apr-24 02:25N 44°34' E 037°55'0 0.1
2018-Apr-24 01:58N 44°34' E 037°55'0 0.0
2018-Apr-24 01:28N 44°34' E 037°55'0 0.0
2018-Apr-24 00:58N 44°34' E 037°55'0 0.1
2018-Apr-24 00:28N 44°34' E 037°55'0 0.0
2018-Apr-23 23:58N 44°34' E 037°55'0 0.0
2018-Apr-23 23:28N 44°34' E 037°55'0 0.0
2018-Apr-23 22:58N 44°34' E 037°55'0 0.0
2018-Apr-23 22:28N 44°34' E 037°55'0 0.0
2018-Apr-23 21:58N 44°34' E 037°55'0 0.0
2018-Apr-23 21:28N 44°34' E 037°55'0 0.0
2018-Apr-23 20:58N 44°34' E 037°55'0 0.0
2018-Apr-23 20:28N 44°34' E 037°55'0 0.0
2018-Apr-23 19:58N 44°34' E 037°55'0 0.0
2018-Apr-23 19:28N 44°34' E 037°55'0 0.0
2018-Apr-23 18:55N 44°34' E 037°55'0 0.0
2018-Apr-23 18:28N 44°34' E 037°55'0 0.0
2018-Apr-23 17:58N 44°34' E 037°55'0 0.0
2018-Apr-23 17:28N 44°34' E 037°56'0 0.0
2018-Apr-23 16:58N 44°34' E 037°56'0 0.0
2018-Apr-23 16:28N 44°34' E 037°56'0 0.0
2018-Apr-23 15:58N 44°34' E 037°56'0 0.0
2018-Apr-23 15:25N 44°34' E 037°56'0 0.0
2018-Apr-23 14:58N 44°34' E 037°56'0 0.0
2018-Apr-23 14:28N 44°34' E 037°56'0 0.0
2018-Apr-23 13:58N 44°34' E 037°56'0 0.0
2018-Apr-23 13:28N 44°34' E 037°56'0 0.0
2018-Apr-23 12:58N 44°34' E 037°56'0 0.0
2018-Apr-23 12:28N 44°34' E 037°56'0 0.0
2018-Apr-23 11:58N 44°34' E 037°56'0 0.0
2018-Apr-23 11:28N 44°34' E 037°56'0 0.0
2018-Apr-23 10:58N 44°34' E 037°56'0 0.0
2018-Apr-23 10:28N 44°34' E 037°56'0 0.0
2018-Apr-23 09:58N 44°34' E 037°56'0 0.1
2018-Apr-23 09:28N 44°34' E 037°56'0 0.1
2018-Apr-23 08:58N 44°34' E 037°56'0 0.0
2018-Apr-23 08:28N 44°34' E 037°56'0 0.0
2018-Apr-23 07:58N 44°34' E 037°56'0 0.0
2018-Apr-23 07:28N 44°34' E 037°56'0 0.0
2018-Apr-23 06:58N 44°34' E 037°56'0 0.0
2018-Apr-23 06:28N 44°34' E 037°56'0 0.0
2018-Apr-23 05:58N 44°34' E 037°56'0 0.0
2018-Apr-23 05:28N 44°34' E 037°56'0 0.0
2018-Apr-23 04:55N 44°34' E 037°56'0 0.0
2018-Apr-23 04:28N 44°34' E 037°56'0 0.0
2018-Apr-23 03:58N 44°34' E 037°56'0 0.0
2018-Apr-23 03:28N 44°34' E 037°56'0 0.0
2018-Apr-23 02:58N 44°34' E 037°56'0 0.0
2018-Apr-23 02:28N 44°34' E 037°56'0 0.0
2018-Apr-23 01:58N 44°34' E 037°56'0 0.0
2018-Apr-23 01:25N 44°34' E 037°56'0 0.0
2018-Apr-23 00:58N 44°34' E 037°56'0 0.0
2018-Apr-23 00:28N 44°34' E 037°56'0 0.0
2018-Apr-22 23:58N 44°34' E 037°56'0 0.0
2018-Apr-22 23:28N 44°34' E 037°56'  

Dump ship's entire track history